createdAt,value
2023-02-14T00:00:29.781Z,99.48
2023-02-14T00:03:29.772Z,99.72
2023-02-14T00:06:29.834Z,99.71
2023-02-14T00:09:32.744Z,99.64
2023-02-14T00:12:32.750Z,99.66
2023-02-14T00:15:32.724Z,99.43
2023-02-14T00:18:54.749Z,99.41
2023-02-14T00:21:54.728Z,99.36
2023-02-14T00:24:54.799Z,99.35
2023-02-14T00:27:54.773Z,99.33
2023-02-14T00:30:47.805Z,99.26
2023-02-14T00:33:47.792Z,99.56
2023-02-14T00:36:47.778Z,99.62
2023-02-14T00:39:47.780Z,99.26
2023-02-14T00:42:47.727Z,99.33
2023-02-14T00:45:48.796Z,99.10
2023-02-14T00:48:48.774Z,99.02
2023-02-14T00:51:48.752Z,98.84
2023-02-14T00:54:48.775Z,98.97
2023-02-14T00:57:48.754Z,99.38
2023-02-14T01:00:48.774Z,99.42
2023-02-14T01:03:48.756Z,99.95
2023-02-14T01:06:48.774Z,99.92
2023-02-14T01:09:48.739Z,100.00
2023-02-14T01:12:48.775Z,99.76
2023-02-14T01:15:52.746Z,99.33
2023-02-14T01:18:54.770Z,99.48
2023-02-14T01:21:54.774Z,99.11
2023-02-14T01:24:54.776Z,99.19
2023-02-14T01:27:55.728Z,99.73
2023-02-14T01:30:55.847Z,99.48
2023-02-14T01:33:56.784Z,99.71
2023-02-14T01:36:56.744Z,99.56
2023-02-14T01:39:56.755Z,99.50
2023-02-14T01:42:56.748Z,99.84
2023-02-14T01:45:56.826Z,99.80
2023-02-14T01:48:56.744Z,99.78
2023-02-14T01:52:00.138Z,99.72
2023-02-14T01:55:05.793Z,99.74
2023-02-14T01:58:29.766Z,99.64
2023-02-14T02:01:30.850Z,99.94
2023-02-14T02:04:33.797Z,99.87
2023-02-14T02:07:36.789Z,99.91
2023-02-14T02:10:36.735Z,100.00
2023-02-14T02:13:36.782Z,100.00
2023-02-14T02:17:04.793Z,100.00
2023-02-14T02:20:17.767Z,100.00
2023-02-14T02:23:14.745Z,100.00
2023-02-14T02:26:38.717Z,100.00
2023-02-14T02:30:09.807Z,99.83
2023-02-14T02:33:18.706Z,100.00
2023-02-14T02:36:31.735Z,100.00
2023-02-14T02:39:50.791Z,100.00
2023-02-14T02:43:07.729Z,100.00
2023-02-14T02:46:36.760Z,100.00
2023-02-14T02:50:16.746Z,100.00
2023-02-14T02:53:33.749Z,100.00
2023-02-14T02:56:52.778Z,100.00
2023-02-14T02:59:55.785Z,100.00
2023-02-14T03:03:16.728Z,100.00
2023-02-14T03:06:16.767Z,100.00
2023-02-14T03:09:24.740Z,100.00
2023-02-14T03:12:47.759Z,100.00
2023-02-14T03:16:04.857Z,100.00
2023-02-14T03:19:23.736Z,100.00
2023-02-14T03:22:41.748Z,100.00
2023-02-14T03:25:41.788Z,100.00
2023-02-14T03:28:52.752Z,100.00
2023-02-14T03:32:04.851Z,100.00
2023-02-14T03:35:12.772Z,100.00
2023-02-14T03:38:27.722Z,100.00
2023-02-14T03:41:31.761Z,100.00
2023-02-14T03:44:34.756Z,100.00
2023-02-14T03:47:36.734Z,100.00
2023-02-14T03:50:36.729Z,100.00
2023-02-14T03:53:40.730Z,100.00
2023-02-14T03:56:44.719Z,100.00
2023-02-14T03:59:44.802Z,100.00
2023-02-14T04:02:50.728Z,100.00
2023-02-14T04:05:52.758Z,100.00
2023-02-14T04:08:52.733Z,100.00
2023-02-14T04:11:52.783Z,100.00
2023-02-14T04:14:52.747Z,100.00
2023-02-14T04:18:11.787Z,100.00
2023-02-14T04:21:11.749Z,100.00
2023-02-14T04:24:11.730Z,100.00
2023-02-14T04:27:17.730Z,100.00
2023-02-14T04:30:18.774Z,100.00
2023-02-14T04:33:18.771Z,100.00
2023-02-14T04:36:18.722Z,100.00
2023-02-14T04:39:18.776Z,100.00
2023-02-14T04:42:18.724Z,100.00
2023-02-14T04:45:18.762Z,100.00
2023-02-14T04:48:18.732Z,100.00
2023-02-14T04:51:18.718Z,100.00
2023-02-14T04:54:18.761Z,100.00
2023-02-14T04:57:18.774Z,100.00
2023-02-14T05:00:19.770Z,100.00
2023-02-14T05:03:12.779Z,100.00
2023-02-14T05:05:58.724Z,100.00
2023-02-14T05:08:58.717Z,100.00
2023-02-14T05:11:58.731Z,100.00
2023-02-14T05:14:58.730Z,100.00
2023-02-14T05:17:58.712Z,100.00
2023-02-14T05:20:58.922Z,100.00
2023-02-14T05:23:58.759Z,100.00
2023-02-14T05:26:58.729Z,100.00
2023-02-14T05:29:58.810Z,100.00
2023-02-14T05:32:58.737Z,100.00
2023-02-14T05:35:58.746Z,100.00
2023-02-14T05:38:58.727Z,100.00
2023-02-14T05:41:59.475Z,100.00
2023-02-14T05:44:59.758Z,100.00
2023-02-14T05:48:00.872Z,100.00
2023-02-14T05:51:01.073Z,100.00
2023-02-14T05:54:00.758Z,100.00
2023-02-14T05:57:00.779Z,100.00
2023-02-14T06:00:00.770Z,100.00
2023-02-14T06:03:04.747Z,100.00
2023-02-14T06:06:04.781Z,100.00
2023-02-14T06:09:04.810Z,100.00
2023-02-14T06:12:08.293Z,100.00
2023-02-14T06:15:08.744Z,100.00
2023-02-14T06:18:09.789Z,100.00
2023-02-14T06:21:12.112Z,100.00
2023-02-14T06:24:13.778Z,100.00
2023-02-14T06:27:15.757Z,100.00
2023-02-14T06:30:15.778Z,100.00
2023-02-14T06:33:15.716Z,100.00
2023-02-14T06:36:15.914Z,100.00
2023-02-14T06:39:18.803Z,100.00
2023-02-14T06:42:19.811Z,100.00
2023-02-14T06:45:20.740Z,100.00
2023-02-14T06:48:20.754Z,100.00
2023-02-14T06:51:21.855Z,99.98
2023-02-14T06:54:23.862Z,99.85
2023-02-14T06:57:26.784Z,99.77
2023-02-14T07:00:26.711Z,99.95
2023-02-14T07:03:26.968Z,99.94
2023-02-14T07:06:29.074Z,100.00
2023-02-14T07:09:32.710Z,100.00
2023-02-14T07:12:32.896Z,100.00
2023-02-14T07:15:32.901Z,99.72
2023-02-14T07:18:33.786Z,99.54
2023-02-14T07:21:36.407Z,99.64
2023-02-14T07:24:39.815Z,99.25
2023-02-14T07:27:45.758Z,99.69
2023-02-14T07:30:49.956Z,99.69
2023-02-14T07:33:44.025Z,99.47
2023-02-14T07:36:31.823Z,99.28
2023-02-14T07:39:18.841Z,99.93
2023-02-14T07:42:04.723Z,99.43
2023-02-14T07:45:20.770Z,99.17
2023-02-14T07:48:20.824Z,99.35
2023-02-14T07:51:21.030Z,98.59
2023-02-14T07:54:21.288Z,98.13
2023-02-14T07:57:24.802Z,97.80
2023-02-14T08:00:24.781Z,97.20
2023-02-14T08:03:25.742Z,96.40
2023-02-14T08:06:25.773Z,95.88
2023-02-14T08:09:30.766Z,95.28
2023-02-14T08:12:49.846Z,95.26
2023-02-14T08:16:07.882Z,95.32
2023-02-14T08:19:07.765Z,94.93
2023-02-14T08:22:07.761Z,94.48
2023-02-14T08:25:07.738Z,94.20
2023-02-14T08:28:07.757Z,93.82
2023-02-14T08:31:53.261Z,93.89
2023-02-14T08:34:57.851Z,93.39
2023-02-14T08:37:57.739Z,93.11
2023-02-14T08:40:59.933Z,93.26
2023-02-14T08:43:59.723Z,92.36
2023-02-14T08:47:03.890Z,91.77
2023-02-14T08:50:03.757Z,91.77
2023-02-14T08:53:03.752Z,91.89
2023-02-14T08:56:03.775Z,91.09
2023-02-14T08:59:13.785Z,90.85
2023-02-14T09:02:17.867Z,90.58
2023-02-14T09:04:57.845Z,89.33
2023-02-14T09:07:44.090Z,89.50
2023-02-14T09:10:25.908Z,88.29
2023-02-14T09:13:11.748Z,88.76
2023-02-14T09:16:00.800Z,88.40
2023-02-14T09:19:06.784Z,88.12
2023-02-14T09:22:06.773Z,87.76
2023-02-14T09:25:06.778Z,87.41
2023-02-14T09:28:06.708Z,86.95
2023-02-14T09:31:06.875Z,86.72
2023-02-14T09:34:06.736Z,86.80
2023-02-14T09:37:11.613Z,86.48
2023-02-14T09:40:12.809Z,85.23
2023-02-14T09:43:57.781Z,85.60
2023-02-14T09:47:02.731Z,84.91
2023-02-14T09:50:04.368Z,84.37
2023-02-14T09:53:26.756Z,83.53
2023-02-14T09:56:51.865Z,82.84
2023-02-14T10:00:07.760Z,81.97
2023-02-14T10:03:32.332Z,80.70
2023-02-14T10:06:54.888Z,80.27
2023-02-14T10:10:33.309Z,79.69
2023-02-14T10:13:43.235Z,78.45
2023-02-14T10:16:47.804Z,79.07
2023-02-14T10:19:56.719Z,78.55
2023-02-14T10:22:59.707Z,77.59
2023-02-14T10:26:07.750Z,76.13
2023-02-14T10:29:08.727Z,75.27
2023-02-14T10:32:12.811Z,75.44
2023-02-14T10:35:15.099Z,74.24
2023-02-14T10:38:44.792Z,73.55
2023-02-14T10:42:17.790Z,71.39
2023-02-14T10:45:54.832Z,70.09
2023-02-14T10:49:06.821Z,70.28
2023-02-14T10:52:10.763Z,70.31
2023-02-14T10:55:20.254Z,69.45
2023-02-14T10:58:36.055Z,67.60
2023-02-14T11:01:35.790Z,64.26
2023-02-14T11:04:37.776Z,60.63
2023-02-14T11:07:37.730Z,57.81
2023-02-14T11:10:46.846Z,55.90
2023-02-14T11:13:49.854Z,56.35
2023-02-14T11:16:50.914Z,56.66
2023-02-14T11:19:53.947Z,54.90
2023-02-14T11:22:54.854Z,55.57
2023-02-14T11:25:54.738Z,56.91
2023-02-14T11:29:23.931Z,57.13
2023-02-14T11:32:34.769Z,57.85
2023-02-14T11:35:40.740Z,58.39
2023-02-14T11:38:43.745Z,55.86
2023-02-14T11:42:02.841Z,49.50
2023-02-14T11:45:13.782Z,50.01
2023-02-14T11:48:38.130Z,50.79
2023-02-14T11:51:49.728Z,46.99
2023-02-14T11:54:55.769Z,47.22
2023-02-14T11:58:01.227Z,47.29
2023-02-14T12:01:07.740Z,46.65
2023-02-14T12:04:09.871Z,45.62
2023-02-14T12:07:09.762Z,44.86
2023-02-14T12:10:26.879Z,45.64
2023-02-14T12:13:27.744Z,45.50
2023-02-14T12:16:35.786Z,45.46
2023-02-14T12:19:52.203Z,46.94
2023-02-14T12:22:57.744Z,46.28
2023-02-14T12:26:09.750Z,44.44
2023-02-14T12:29:16.749Z,45.01
2023-02-14T12:32:37.783Z,45.24
2023-02-14T12:35:43.866Z,45.94
2023-02-14T12:39:13.792Z,47.14
2023-02-14T12:42:46.808Z,47.82
2023-02-14T12:49:39.461Z,50.38
2023-02-14T12:52:39.031Z,52.63
2023-02-14T12:56:24.752Z,53.10
2023-02-14T13:00:05.766Z,53.62
2023-02-14T13:03:36.758Z,51.74
2023-02-14T13:06:50.725Z,49.98
2023-02-14T13:10:00.736Z,50.14
2023-02-14T13:13:35.770Z,51.00
2023-02-14T13:17:08.770Z,52.19
2023-02-14T13:20:20.756Z,54.00
2023-02-14T13:23:42.726Z,54.98
2023-02-14T13:26:45.775Z,55.28
2023-02-14T13:29:56.716Z,56.05
2023-02-14T13:32:58.733Z,56.17
2023-02-14T13:35:58.887Z,56.93
2023-02-14T13:39:04.729Z,57.13
2023-02-14T13:42:04.722Z,56.54
2023-02-14T13:45:04.733Z,54.73
2023-02-14T13:48:18.757Z,54.89
2023-02-14T13:51:20.743Z,54.71
2023-02-14T13:54:34.725Z,54.34
2023-02-14T13:57:47.716Z,54.41
2023-02-14T14:00:52.783Z,56.20
2023-02-14T14:03:52.746Z,57.83
2023-02-14T14:07:16.703Z,59.31
2023-02-14T14:10:18.726Z,60.17
2023-02-14T14:13:20.727Z,62.00
2023-02-14T14:16:38.780Z,63.86
2023-02-14T14:19:38.753Z,65.20
2023-02-14T14:22:42.726Z,64.75
2023-02-14T14:25:49.731Z,66.63
2023-02-14T14:28:49.715Z,67.78
2023-02-14T14:31:49.811Z,67.84
2023-02-14T14:34:42.817Z,68.32
2023-02-14T14:37:48.762Z,70.16
2023-02-14T14:40:50.741Z,70.93
2023-02-14T14:43:52.760Z,70.60
2023-02-14T14:46:54.031Z,72.08
2023-02-14T14:49:46.749Z,72.17
2023-02-14T14:52:55.728Z,72.62
2023-02-14T14:56:02.086Z,73.42
2023-02-14T14:59:02.761Z,73.45
2023-02-14T15:02:02.720Z,73.56
2023-02-14T15:05:02.747Z,74.51
2023-02-14T15:08:02.728Z,75.54
2023-02-14T15:11:12.726Z,76.05
2023-02-14T15:14:12.740Z,77.24
2023-02-14T15:17:17.719Z,77.14
2023-02-14T15:20:22.768Z,77.59
2023-02-14T15:23:30.737Z,77.61
2023-02-14T15:26:41.710Z,78.58
2023-02-14T15:29:44.784Z,79.36
2023-02-14T15:32:46.767Z,79.97
2023-02-14T15:35:48.737Z,80.63
2023-02-14T15:38:53.729Z,81.04
2023-02-14T15:41:59.748Z,81.94
2023-02-14T15:44:59.757Z,82.30
2023-02-14T15:48:00.777Z,83.42
2023-02-14T15:51:04.777Z,84.03
2023-02-14T15:54:07.754Z,84.54
2023-02-14T15:57:07.785Z,85.68
2023-02-14T16:00:07.760Z,84.73
2023-02-14T16:03:15.733Z,84.73
2023-02-14T16:06:15.709Z,85.09
2023-02-14T16:09:15.711Z,84.69
2023-02-14T16:12:47.716Z,84.19
2023-02-14T16:15:49.792Z,84.38
2023-02-14T16:18:59.701Z,84.07
2023-02-14T16:22:09.763Z,84.13
2023-02-14T16:25:10.032Z,84.09
2023-02-14T16:28:09.723Z,84.37
2023-02-14T16:31:11.811Z,85.00
2023-02-14T16:34:11.763Z,85.35
2023-02-14T16:37:11.736Z,85.33
2023-02-14T16:40:14.259Z,85.16
2023-02-14T16:43:13.719Z,85.73
2023-02-14T16:46:13.784Z,85.86
2023-02-14T16:49:13.730Z,86.24
2023-02-14T16:52:13.742Z,86.60
2023-02-14T16:55:13.732Z,86.99
2023-02-14T16:58:13.695Z,87.60
2023-02-14T17:01:13.749Z,88.13
2023-02-14T17:04:13.704Z,89.04
2023-02-14T17:07:14.740Z,89.75
2023-02-14T17:10:18.747Z,90.47
2023-02-14T17:13:18.725Z,90.72
2023-02-14T17:16:21.779Z,91.63
2023-02-14T17:19:21.765Z,92.58
2023-02-14T17:22:21.736Z,93.19
2023-02-14T17:25:21.738Z,94.12
2023-02-14T17:28:21.748Z,94.68
2023-02-14T17:31:21.795Z,95.47
2023-02-14T17:34:21.781Z,96.26
2023-02-14T17:37:21.707Z,96.64
2023-02-14T17:40:15.772Z,97.69
2023-02-14T17:43:01.733Z,98.50
2023-02-14T17:46:02.718Z,98.85
2023-02-14T17:49:02.724Z,99.50
2023-02-14T17:52:02.726Z,100.00
2023-02-14T17:55:02.721Z,100.00
2023-02-14T17:58:02.840Z,100.00
2023-02-14T18:01:02.741Z,100.00
2023-02-14T18:04:02.750Z,100.00
2023-02-14T18:07:02.742Z,100.00
2023-02-14T18:10:02.743Z,100.00
2023-02-14T18:13:02.766Z,100.00
2023-02-14T18:16:03.034Z,100.00
2023-02-14T18:19:02.826Z,100.00
2023-02-14T18:22:02.784Z,100.00
2023-02-14T18:25:04.725Z,100.00
2023-02-14T18:28:04.771Z,100.00
2023-02-14T18:31:04.798Z,100.00
2023-02-14T18:34:04.762Z,100.00
2023-02-14T18:37:06.764Z,100.00
2023-02-14T18:40:06.711Z,100.00
2023-02-14T18:43:06.697Z,100.00
2023-02-14T18:46:06.908Z,100.00
2023-02-14T18:49:06.707Z,100.00
2023-02-14T18:52:06.723Z,100.00
2023-02-14T18:55:06.700Z,100.00
2023-02-14T18:58:07.852Z,100.00
2023-02-14T19:01:07.766Z,100.00
2023-02-14T19:04:07.745Z,100.00
2023-02-14T19:07:07.710Z,100.00
2023-02-14T19:10:07.760Z,100.00
2023-02-14T19:13:07.714Z,100.00
2023-02-14T19:16:11.758Z,100.00
2023-02-14T19:19:11.767Z,100.00
2023-02-14T19:22:12.732Z,100.00
2023-02-14T19:25:12.757Z,100.00
2023-02-14T19:28:13.734Z,100.00
2023-02-14T19:31:13.882Z,100.00
2023-02-14T19:34:13.734Z,100.00
2023-02-14T19:37:14.727Z,100.00
2023-02-14T19:40:16.709Z,100.00
2023-02-14T19:43:16.721Z,100.00
2023-02-14T19:46:17.727Z,100.00
2023-02-14T19:49:17.714Z,100.00
2023-02-14T19:52:26.424Z,100.00
2023-02-14T19:55:34.773Z,100.00
2023-02-14T19:58:34.749Z,100.00
2023-02-14T20:01:46.771Z,100.00
2023-02-14T20:04:46.745Z,100.00
2023-02-14T20:07:46.738Z,100.00
2023-02-14T20:10:46.740Z,100.00
2023-02-14T20:13:46.689Z,100.00
2023-02-14T20:16:47.843Z,100.00
2023-02-14T20:19:48.707Z,100.00
2023-02-14T20:22:48.729Z,100.00
2023-02-14T20:25:46.738Z,100.00
2023-02-14T20:28:32.746Z,100.00
2023-02-14T20:31:32.860Z,100.00
2023-02-14T20:34:32.751Z,100.00
2023-02-14T20:37:32.735Z,99.89
2023-02-14T20:40:32.709Z,99.74
2023-02-14T20:43:32.740Z,99.77
2023-02-14T20:46:33.720Z,100.00
2023-02-14T20:49:35.758Z,99.85
2023-02-14T20:52:35.703Z,99.25
2023-02-14T20:55:37.996Z,98.44
2023-02-14T20:58:37.692Z,98.82
2023-02-14T21:01:38.761Z,98.76
2023-02-14T21:04:38.745Z,98.19
2023-02-14T21:07:38.705Z,98.64
2023-02-14T21:10:38.700Z,98.59
2023-02-14T21:13:38.760Z,99.05
2023-02-14T21:16:38.712Z,99.19
2023-02-14T21:19:38.694Z,99.68
2023-02-14T21:22:38.733Z,99.87
2023-02-14T21:25:38.691Z,100.00
2023-02-14T21:28:38.709Z,100.00
2023-02-14T21:31:38.781Z,100.00
2023-02-14T21:34:38.717Z,100.00
2023-02-14T21:37:38.715Z,100.00
2023-02-14T21:40:38.724Z,100.00
2023-02-14T21:43:38.690Z,100.00
2023-02-14T21:46:43.774Z,100.00
2023-02-14T21:50:02.717Z,100.00
2023-02-14T21:53:02.760Z,100.00
2023-02-14T21:56:02.692Z,100.00
2023-02-14T21:59:04.722Z,100.00
2023-02-14T22:02:05.722Z,100.00
2023-02-14T22:05:05.698Z,100.00
2023-02-14T22:08:05.710Z,100.00
2023-02-14T22:11:05.726Z,100.00
2023-02-14T22:14:05.711Z,100.00
2023-02-14T22:17:05.706Z,100.00
2023-02-14T22:20:05.754Z,100.00
2023-02-14T22:23:05.725Z,100.00
2023-02-14T22:26:05.735Z,100.00
2023-02-14T22:29:07.698Z,100.00
2023-02-14T22:32:07.796Z,100.00
2023-02-14T22:35:07.742Z,100.00
2023-02-14T22:38:08.749Z,100.00
2023-02-14T22:41:08.745Z,100.00
2023-02-14T22:44:08.696Z,100.00
2023-02-14T22:47:08.738Z,100.00
2023-02-14T22:50:08.695Z,100.00
2023-02-14T22:53:08.728Z,100.00
2023-02-14T22:56:08.713Z,100.00
2023-02-14T22:59:13.721Z,100.00
2023-02-14T23:02:13.729Z,100.00
2023-02-14T23:05:13.711Z,100.00
2023-02-14T23:08:14.722Z,100.00
2023-02-14T23:11:26.742Z,100.00
2023-02-14T23:14:45.744Z,100.00
2023-02-14T23:18:03.746Z,100.00
2023-02-14T23:21:23.715Z,100.00
2023-02-14T23:24:23.740Z,100.00
2023-02-14T23:27:23.721Z,100.00
2023-02-14T23:30:28.756Z,100.00
2023-02-14T23:33:28.699Z,100.00
2023-02-14T23:36:28.715Z,100.00
2023-02-14T23:39:28.723Z,100.00
2023-02-14T23:42:28.737Z,100.00
2023-02-14T23:45:43.758Z,100.00
2023-02-14T23:48:43.688Z,100.00
2023-02-14T23:51:43.709Z,100.00
2023-02-14T23:54:43.715Z,100.00
2023-02-14T23:57:43.708Z,100.00
